createdAt,value
2022-08-03T00:01:30.183Z,95764.66
2022-08-03T00:06:36.967Z,95755.72
2022-08-03T00:11:41.443Z,95753.81
2022-08-03T00:16:45.251Z,95756.84
2022-08-03T00:21:49.024Z,95764.53
2022-08-03T00:26:53.015Z,95756.41
2022-08-03T00:31:59.580Z,95748.53
2022-08-03T00:37:04.296Z,95752.75
2022-08-03T00:42:08.391Z,95752.75
2022-08-03T00:47:11.641Z,95755.94
2022-08-03T00:52:15.260Z,95746.84
2022-08-03T00:57:18.964Z,95750.69
2022-08-03T01:02:23.024Z,95748.78
2022-08-03T01:07:26.823Z,95752.63
2022-08-03T01:12:31.279Z,95746.25
2022-08-03T01:17:35.913Z,95739.69
2022-08-03T01:22:51.491Z,95738.41
2022-08-03T01:27:58.630Z,95733.13
2022-08-03T01:33:03.556Z,95734.09
2022-08-03T01:38:14.403Z,95734.09
2022-08-03T01:43:55.349Z,95729.44
2022-08-03T01:48:57.119Z,95723.84
2022-08-03T01:54:00.954Z,95727.88
2022-08-03T01:59:04.271Z,95725.31
2022-08-03T02:04:07.886Z,95721.94
2022-08-03T02:09:12.323Z,95722.88
2022-08-03T02:14:15.663Z,95725.94
2022-08-03T02:19:20.018Z,95721.13
2022-08-03T02:24:23.400Z,95727.22
2022-08-03T02:29:39.887Z,95731.03
2022-08-03T02:34:44.187Z,95729.44
2022-08-03T02:39:47.396Z,95726.56
2022-08-03T02:44:50.954Z,95728.78
2022-08-03T02:49:54.306Z,95732.16
2022-08-03T02:54:58.538Z,95731.47
2022-08-03T03:00:01.819Z,95728.59
2022-08-03T03:05:54.546Z,95733.06
2022-08-03T03:10:29.726Z,95731.00
2022-08-03T03:15:35.821Z,95724.56
2022-08-03T03:20:39.125Z,95724.25
2022-08-03T03:25:42.451Z,95720.41
2022-08-03T03:30:52.904Z,95725.50
2022-08-03T03:35:57.364Z,95721.94
2022-08-03T03:41:01.371Z,95725.78
2022-08-03T03:46:05.123Z,95730.28
2022-08-03T03:51:08.777Z,95733.66
2022-08-03T03:56:11.988Z,95741.81
2022-08-03T04:01:15.406Z,95736.50
2022-08-03T04:06:36.774Z,95732.06
2022-08-03T04:11:40.383Z,95741.22
2022-08-03T04:17:00.494Z,95735.34
2022-08-03T04:22:04.260Z,95732.81
2022-08-03T04:27:08.788Z,95740.47
2022-08-03T04:32:13.017Z,95739.44
2022-08-03T04:37:16.463Z,95737.75
2022-08-03T04:42:20.486Z,95739.72
2022-08-03T04:47:23.906Z,95741.81
2022-08-03T04:52:27.930Z,95741.47
2022-08-03T04:57:31.946Z,95748.53
2022-08-03T05:02:35.558Z,95747.78
2022-08-03T05:07:38.893Z,95750.84
2022-08-03T05:12:42.247Z,95754.31
2022-08-03T05:17:45.837Z,95759.38
2022-08-03T05:22:49.646Z,95753.78
2022-08-03T05:27:53.191Z,95765.53
2022-08-03T05:32:56.883Z,95767.91
2022-08-03T05:38:00.700Z,95767.72
2022-08-03T05:43:03.964Z,95772.50
2022-08-03T05:48:07.113Z,95764.72
2022-08-03T05:53:10.663Z,95758.88
2022-08-03T05:58:14.863Z,95757.97
2022-08-03T06:03:18.651Z,95761.88
2022-08-03T06:08:24.798Z,95765.22
2022-08-03T06:13:29.293Z,95759.09
2022-08-03T06:18:33.670Z,95756.91
2022-08-03T06:23:53.962Z,95769.63
2022-08-03T06:28:59.287Z,95770.84
2022-08-03T06:34:32.770Z,95778.94
2022-08-03T06:39:28.719Z,95780.34
2022-08-03T06:44:33.138Z,95771.16
2022-08-03T06:49:37.889Z,95773.19
2022-08-03T06:54:41.760Z,95770.84
2022-08-03T07:00:10.939Z,95774.75
2022-08-03T07:05:08.746Z,95780.47
2022-08-03T07:10:13.170Z,95777.91
2022-08-03T07:15:20.167Z,95779.50
2022-08-03T07:20:41.935Z,95769.34
2022-08-03T07:25:45.654Z,95772.13
2022-08-03T07:30:49.674Z,95767.56
2022-08-03T07:35:52.942Z,95761.97
2022-08-03T07:40:56.688Z,95775.72
2022-08-03T07:46:00.426Z,95764.41
2022-08-03T07:51:06.315Z,95757.00
2022-08-03T07:56:11.293Z,95763.47
2022-08-03T08:01:15.625Z,95755.69
2022-08-03T08:06:20.040Z,95758.38
2022-08-03T08:11:23.422Z,95751.44
2022-08-03T08:16:26.794Z,95760.09
2022-08-03T08:21:54.073Z,95745.72
2022-08-03T08:26:54.558Z,95754.44
2022-08-03T08:31:58.222Z,95745.78
2022-08-03T08:37:02.132Z,95750.56
2022-08-03T08:42:05.397Z,95735.00
2022-08-03T08:47:08.629Z,95737.22
2022-08-03T08:52:25.153Z,95733.75
2022-08-03T08:57:42.416Z,95729.94
2022-08-03T09:02:46.346Z,95730.16
2022-08-03T09:07:49.581Z,95728.97
2022-08-03T09:12:52.831Z,95730.44
2022-08-03T09:17:56.332Z,95731.59
2022-08-03T09:23:00.103Z,95725.63
2022-08-03T09:28:03.531Z,95731.91
2022-08-03T09:33:08.429Z,95713.72
2022-08-03T09:38:14.183Z,95724.59
2022-08-03T09:43:18.121Z,95724.56
2022-08-03T09:48:21.811Z,95719.50
2022-08-03T09:53:25.136Z,95717.59
2022-08-03T09:58:28.386Z,95727.06
2022-08-03T10:03:31.744Z,95715.19
2022-08-03T10:08:35.117Z,95714.44
2022-08-03T10:13:38.803Z,95712.44
2022-08-03T10:18:42.387Z,95715.63
2022-08-03T10:23:46.140Z,95706.13
2022-08-03T10:28:49.422Z,95704.88
2022-08-03T10:33:53.589Z,95700.19
2022-08-03T10:38:57.532Z,95700.19
2022-08-03T10:44:01.216Z,95699.38
2022-08-03T10:49:05.008Z,95696.63
2022-08-03T10:54:10.679Z,95682.31
2022-08-03T10:59:27.928Z,95678.63
2022-08-03T11:04:31.660Z,95677.66
2022-08-03T11:09:35.776Z,95664.41
2022-08-03T11:14:39.009Z,95674.06
2022-08-03T11:19:57.503Z,95670.81
2022-08-03T11:25:01.864Z,95659.50
2022-08-03T11:30:05.367Z,95666.56
2022-08-03T11:35:08.723Z,95664.53
2022-08-03T11:40:12.517Z,95661.59
2022-08-03T11:45:17.247Z,95663.31
2022-08-03T11:50:21.598Z,95662.06
2022-08-03T11:55:30.300Z,95655.72
2022-08-03T12:00:33.984Z,95654.50
2022-08-03T12:05:37.654Z,95649.38
2022-08-03T12:10:42.716Z,95646.16
2022-08-03T12:15:46.475Z,95642.25
2022-08-03T12:20:50.334Z,95633.53
2022-08-03T12:25:53.631Z,95626.09
2022-08-03T12:30:58.820Z,95621.75
2022-08-03T12:36:02.070Z,95624.78
2022-08-03T12:41:05.776Z,95621.91
2022-08-03T12:46:09.058Z,95623.75
2022-08-03T12:51:12.504Z,95624.56
2022-08-03T12:56:15.821Z,95610.28
2022-08-03T13:01:19.332Z,95610.03
2022-08-03T13:06:23.606Z,95608.44
2022-08-03T13:11:50.532Z,95609.16
2022-08-03T13:16:50.400Z,95608.63
2022-08-03T13:22:03.899Z,95607.03
2022-08-03T13:27:22.458Z,95601.94
2022-08-03T13:32:31.875Z,95601.03
2022-08-03T13:37:35.142Z,95603.97
2022-08-03T13:42:38.921Z,95588.78
2022-08-03T13:47:42.318Z,95590.94
2022-08-03T13:52:46.739Z,95586.88
2022-08-03T13:58:06.292Z,95578.69
2022-08-03T14:03:14.922Z,95570.84
2022-08-03T14:08:18.547Z,95560.59
2022-08-03T14:13:22.974Z,95570.22
2022-08-03T14:18:27.605Z,95569.53
2022-08-03T14:23:38.052Z,95564.72
2022-08-03T14:28:41.479Z,95552.78
2022-08-03T14:33:45.204Z,95547.31
2022-08-03T14:38:49.077Z,95558.81
2022-08-03T14:44:00.615Z,95558.50
2022-08-03T14:50:37.795Z,95552.78
2022-08-03T14:54:31.997Z,95539.19
2022-08-03T14:59:55.776Z,95545.56
2022-08-03T15:04:59.818Z,95543.84
2022-08-03T15:10:03.464Z,95533.50
2022-08-03T15:15:06.789Z,95541.56
2022-08-03T15:20:27.760Z,95526.56
2022-08-03T15:26:28.507Z,95525.28
2022-08-03T15:30:57.427Z,95530.53
2022-08-03T15:36:01.204Z,95528.66
2022-08-03T15:41:04.834Z,95531.88
2022-08-03T15:46:28.739Z,95522.59
2022-08-03T15:51:32.678Z,95524.94
2022-08-03T15:56:35.931Z,95520.91
2022-08-03T16:01:39.683Z,95515.03
2022-08-03T16:06:44.141Z,95519.28
2022-08-03T16:11:48.067Z,95517.03
2022-08-03T16:16:53.307Z,95513.03
2022-08-03T16:21:56.944Z,95515.53
2022-08-03T16:27:01.152Z,95511.56
2022-08-03T16:32:09.403Z,95515.66
2022-08-03T16:37:37.133Z,95514.13
2022-08-03T16:42:36.308Z,95510.28
2022-08-03T16:47:40.355Z,95513.44
2022-08-03T16:52:47.531Z,95513.06
2022-08-03T16:57:59.264Z,95519.84
2022-08-03T17:03:04.343Z,95509.25
2022-08-03T17:08:09.029Z,95516.75
2022-08-03T17:13:22.504Z,95518.38
2022-08-03T17:18:27.008Z,95516.78
2022-08-03T17:23:35.556Z,95525.47
2022-08-03T17:28:49.150Z,95518.78
2022-08-03T17:33:56.557Z,95525.09
2022-08-03T17:39:00.264Z,95530.25
2022-08-03T17:44:15.948Z,95532.59
2022-08-03T17:49:29.104Z,95532.19
2022-08-03T17:54:34.999Z,95535.72
2022-08-03T17:59:58.737Z,95541.63
2022-08-03T18:05:17.214Z,95542.78
2022-08-03T18:10:21.676Z,95548.25
2022-08-03T18:15:25.111Z,95556.84
2022-08-03T18:20:34.220Z,95559.09
2022-08-03T18:25:50.064Z,95555.13
2022-08-03T18:30:57.764Z,95558.91
2022-08-03T18:36:00.997Z,95555.53
2022-08-03T18:41:12.706Z,95565.72
2022-08-03T18:46:20.804Z,95559.72
2022-08-03T18:51:33.871Z,95574.41
2022-08-03T18:56:39.063Z,95572.75
2022-08-03T19:01:57.871Z,95577.28
2022-08-03T19:07:07.972Z,95575.44
2022-08-03T19:12:26.585Z,95585.31
2022-08-03T19:17:35.091Z,95587.88
2022-08-03T19:22:39.653Z,95584.13
2022-08-03T19:27:49.159Z,95586.31
2022-08-03T19:32:53.398Z,95592.47
2022-08-03T19:37:57.118Z,95597.88
2022-08-03T19:43:04.555Z,95602.63
2022-08-03T19:48:10.107Z,95602.72
2022-08-03T19:53:13.418Z,95603.31
2022-08-03T19:58:20.283Z,95595.41
2022-08-03T20:03:42.946Z,95600.66
2022-08-03T20:08:48.226Z,95593.78
2022-08-03T20:13:55.476Z,95597.63
2022-08-03T20:18:59.585Z,95594.50
2022-08-03T20:24:24.449Z,95602.03
2022-08-03T20:34:53.328Z,95589.63
2022-08-03T20:39:57.281Z,95593.78
2022-08-03T20:45:05.564Z,95595.84
2022-08-03T20:50:10.163Z,95596.03
2022-08-03T20:55:14.798Z,95600.31
2022-08-03T21:00:21.860Z,95598.25
2022-08-03T21:05:47.663Z,95591.41
2022-08-03T21:10:50.603Z,95601.25
2022-08-03T21:13:12.389Z,95596.50
2022-08-03T21:16:01.331Z,95584.66
2022-08-03T21:21:18.112Z,95593.50
2022-08-03T21:26:21.402Z,95593.50
2022-08-03T21:31:26.569Z,95588.38
2022-08-03T21:36:30.605Z,95589.44
2022-08-03T21:41:33.895Z,95583.34
2022-08-03T21:46:43.647Z,95579.19
2022-08-03T21:51:48.148Z,95577.34
2022-08-03T21:56:51.948Z,95590.56
2022-08-03T22:01:58.587Z,95582.94
2022-08-03T22:07:01.991Z,95583.28
2022-08-03T22:12:06.347Z,95584.38
2022-08-03T22:17:09.612Z,95576.00
2022-08-03T22:22:14.666Z,95576.03
2022-08-03T22:27:34.305Z,95578.84
2022-08-03T22:32:38.065Z,95583.25
2022-08-03T22:37:41.738Z,95580.16
2022-08-03T22:42:46.173Z,95577.66
2022-08-03T22:47:49.843Z,95579.41
2022-08-03T22:52:53.899Z,95587.84
2022-08-03T22:57:57.125Z,95574.41
2022-08-03T23:03:01.060Z,95583.41
2022-08-03T23:08:04.747Z,95587.53
2022-08-03T23:13:08.061Z,95578.84
2022-08-03T23:18:11.749Z,95584.59
2022-08-03T23:23:15.391Z,95583.28
2022-08-03T23:28:23.578Z,95574.63
2022-08-03T23:33:27.226Z,95579.84
2022-08-03T23:38:30.800Z,95580.56
2022-08-03T23:43:52.347Z,95582.19
2022-08-03T23:48:57.410Z,95570.34
2022-08-03T23:54:02.310Z,95573.44
2022-08-03T23:59:05.691Z,95572.78
